createdAt,value
2022-11-06T00:00:35.966Z,4.70
2022-11-06T00:03:05.100Z,3.67
2022-11-06T00:05:51.060Z,4.85
2022-11-06T00:08:29.557Z,4.97
2022-11-06T00:10:57.848Z,4.60
2022-11-06T00:13:27.454Z,3.47
2022-11-06T00:15:55.676Z,4.32
2022-11-06T00:18:27.452Z,5.00
2022-11-06T00:23:23.573Z,4.82
2022-11-06T00:25:53.174Z,3.60
2022-11-06T00:28:21.352Z,4.43
2022-11-06T00:30:50.934Z,5.07
2022-11-06T00:33:19.090Z,4.65
2022-11-06T00:35:47.283Z,4.70
2022-11-06T00:38:15.687Z,4.50
2022-11-06T00:40:43.973Z,4.40
2022-11-06T00:43:12.162Z,6.47
2022-11-06T00:45:40.300Z,4.47
2022-11-06T00:48:10.070Z,5.25
2022-11-06T00:50:38.439Z,3.92
2022-11-06T00:53:06.614Z,5.18
2022-11-06T00:55:35.144Z,4.82
2022-11-06T00:58:03.338Z,5.03
2022-11-06T01:00:31.829Z,6.63
2022-11-06T01:03:00.143Z,3.97
2022-11-06T01:05:29.892Z,3.67
2022-11-06T01:07:58.045Z,4.28
2022-11-06T01:10:26.333Z,10.02
2022-11-06T01:12:54.680Z,3.42
2022-11-06T01:15:22.835Z,5.15
2022-11-06T01:17:51.004Z,4.07
2022-11-06T01:20:19.536Z,3.90
2022-11-06T01:22:49.063Z,3.78
2022-11-06T01:25:17.260Z,4.10
2022-11-06T01:27:45.430Z,4.57
2022-11-06T01:30:14.382Z,3.65
2022-11-06T01:32:42.775Z,3.58
2022-11-06T01:35:11.101Z,4.50
2022-11-06T01:37:39.353Z,4.60
2022-11-06T01:40:09.815Z,2.58
2022-11-06T01:42:37.948Z,4.30
2022-11-06T01:45:29.747Z,4.03
2022-11-06T01:47:58.154Z,5.43
2022-11-06T01:50:26.757Z,3.80
2022-11-06T01:52:55.065Z,4.97
2022-11-06T01:55:30.584Z,4.20
2022-11-06T01:58:01.610Z,6.03
2022-11-06T02:00:31.217Z,4.97
2022-11-06T02:03:00.052Z,4.65
2022-11-06T02:05:28.710Z,3.83
2022-11-06T02:07:57.513Z,4.45
2022-11-06T02:10:27.645Z,3.83
2022-11-06T02:13:06.349Z,3.40
2022-11-06T02:15:45.706Z,3.83
2022-11-06T02:18:23.973Z,3.03
2022-11-06T02:21:11.711Z,1.92
2022-11-06T02:23:57.081Z,3.58
2022-11-06T02:26:58.290Z,4.18
2022-11-06T02:29:34.374Z,4.50
2022-11-06T02:32:08.785Z,4.30
2022-11-06T02:34:38.311Z,4.53
2022-11-06T02:37:19.066Z,4.63
2022-11-06T02:39:49.640Z,3.17
2022-11-06T02:42:21.004Z,4.25
2022-11-06T02:44:53.131Z,3.47
2022-11-06T02:47:23.889Z,3.22
2022-11-06T02:49:55.861Z,4.20
2022-11-06T02:52:29.423Z,2.85
2022-11-06T02:55:02.912Z,4.35
2022-11-06T02:57:36.764Z,3.95
2022-11-06T03:00:09.754Z,2.88
2022-11-06T03:02:41.861Z,3.25
2022-11-06T03:05:15.388Z,3.55
2022-11-06T03:07:48.571Z,3.05
2022-11-06T03:10:17.288Z,3.53
2022-11-06T03:12:56.479Z,3.50
2022-11-06T03:15:33.742Z,3.45
2022-11-06T03:18:11.172Z,3.45
2022-11-06T03:20:44.404Z,6.75
2022-11-06T03:23:16.596Z,3.45
2022-11-06T03:25:48.533Z,3.50
2022-11-06T03:28:24.648Z,2.63
2022-11-06T03:30:59.926Z,2.65
2022-11-06T03:33:35.474Z,3.35
2022-11-06T03:36:07.121Z,3.90
2022-11-06T03:38:42.045Z,2.47
2022-11-06T03:41:15.468Z,5.00
2022-11-06T03:43:46.600Z,3.80
2022-11-06T03:46:20.978Z,3.53
2022-11-06T03:48:51.969Z,2.80
2022-11-06T03:51:23.404Z,4.15
2022-11-06T03:53:53.840Z,3.17
2022-11-06T03:56:27.820Z,2.80
2022-11-06T03:58:59.686Z,3.85
2022-11-06T04:01:36.698Z,2.88
2022-11-06T04:04:08.495Z,3.58
2022-11-06T04:09:27.093Z,2.45
2022-11-06T04:12:13.818Z,3.97
2022-11-06T04:14:46.329Z,4.30
2022-11-06T04:17:17.328Z,3.20
2022-11-06T04:19:50.195Z,2.70
2022-11-06T04:22:38.995Z,3.15
2022-11-06T04:25:37.936Z,3.38
2022-11-06T04:28:19.446Z,2.42
2022-11-06T04:30:58.421Z,3.05
2022-11-06T04:33:35.356Z,3.22
2022-11-06T04:36:13.676Z,2.83
2022-11-06T04:38:48.412Z,2.90
2022-11-06T04:41:22.381Z,3.28
2022-11-06T04:43:54.005Z,2.72
2022-11-06T04:46:25.324Z,2.55
2022-11-06T04:48:56.300Z,3.70
2022-11-06T04:51:28.752Z,2.83
2022-11-06T04:53:57.559Z,2.30
2022-11-06T04:56:34.647Z,2.53
2022-11-06T04:59:03.344Z,3.42
2022-11-06T05:01:31.775Z,3.38
2022-11-06T05:04:01.378Z,2.38
2022-11-06T05:06:30.429Z,2.22
2022-11-06T05:08:59.219Z,2.00
2022-11-06T05:11:27.507Z,2.75
2022-11-06T05:13:55.831Z,2.33
2022-11-06T05:16:24.059Z,2.38
2022-11-06T05:18:52.400Z,2.15
2022-11-06T05:21:39.231Z,1.95
2022-11-06T05:24:08.075Z,2.13
2022-11-06T05:26:36.233Z,2.45
2022-11-06T05:29:04.553Z,2.58
2022-11-06T05:31:32.701Z,2.28
2022-11-06T05:34:00.888Z,2.47
2022-11-06T05:36:30.632Z,1.60
2022-11-06T05:38:58.848Z,1.70
2022-11-06T05:41:27.026Z,1.92
2022-11-06T05:43:55.372Z,0.95
2022-11-06T05:46:46.976Z,2.15
2022-11-06T05:49:11.771Z,1.52
2022-11-06T05:51:41.316Z,2.00
2022-11-06T05:54:09.548Z,1.60
2022-11-06T05:56:37.799Z,1.25
2022-11-06T05:59:05.968Z,1.40
2022-11-06T06:01:34.586Z,0.77
2022-11-06T06:04:02.828Z,1.45
2022-11-06T06:06:31.047Z,1.30
2022-11-06T06:09:00.614Z,1.42
2022-11-06T06:11:28.810Z,1.38
2022-11-06T06:13:56.998Z,2.00
2022-11-06T06:16:25.247Z,1.77
2022-11-06T06:18:53.504Z,2.17
2022-11-06T06:21:21.662Z,1.75
2022-11-06T06:23:49.825Z,1.75
2022-11-06T06:26:19.453Z,1.25
2022-11-06T06:28:49.785Z,1.13
2022-11-06T06:31:17.997Z,1.42
2022-11-06T06:33:46.212Z,2.20
2022-11-06T06:36:14.420Z,1.95
2022-11-06T06:38:42.916Z,1.48
2022-11-06T06:41:12.657Z,1.45
2022-11-06T06:43:42.184Z,2.60
2022-11-06T06:46:10.648Z,1.30
2022-11-06T06:48:38.830Z,1.67
2022-11-06T06:51:08.027Z,2.10
2022-11-06T06:53:37.204Z,1.52
2022-11-06T06:56:06.117Z,1.50
2022-11-06T06:58:34.788Z,1.45
2022-11-06T07:01:06.463Z,1.90
2022-11-06T07:06:02.749Z,1.13
2022-11-06T07:08:31.288Z,1.67
2022-11-06T07:11:02.917Z,1.58
2022-11-06T07:13:35.813Z,0.77
2022-11-06T07:16:06.869Z,1.42
2022-11-06T07:18:35.562Z,2.47
2022-11-06T07:21:06.664Z,1.33
2022-11-06T07:23:35.592Z,1.02
2022-11-06T07:26:04.716Z,1.88
2022-11-06T07:28:33.389Z,1.80
2022-11-06T07:31:02.320Z,2.35
2022-11-06T07:33:32.824Z,1.02
2022-11-06T07:36:04.948Z,1.45
2022-11-06T07:38:34.690Z,1.52
2022-11-06T07:41:04.514Z,1.17
2022-11-06T07:43:32.892Z,2.45
2022-11-06T07:46:02.168Z,1.50
2022-11-06T07:48:32.575Z,1.35
2022-11-06T07:51:03.329Z,1.13
2022-11-06T07:53:31.473Z,1.10
2022-11-06T07:56:00.171Z,1.23
2022-11-06T07:58:28.373Z,1.48
2022-11-06T08:00:58.396Z,1.75
2022-11-06T08:03:29.913Z,1.67
2022-11-06T08:06:00.042Z,1.48
2022-11-06T08:08:29.283Z,2.15
2022-11-06T08:10:57.444Z,1.60
2022-11-06T08:13:26.195Z,2.15
2022-11-06T08:15:54.379Z,2.40
2022-11-06T08:18:22.560Z,1.55
2022-11-06T08:20:54.125Z,2.00
2022-11-06T08:25:55.364Z,1.23
2022-11-06T08:28:23.556Z,1.80
2022-11-06T08:30:51.881Z,1.95
2022-11-06T08:33:21.675Z,1.23
2022-11-06T08:35:49.933Z,0.85
2022-11-06T08:38:18.151Z,1.38
2022-11-06T08:40:53.190Z,1.42
2022-11-06T08:43:24.257Z,1.48
2022-11-06T08:45:52.423Z,0.93
2022-11-06T08:48:20.663Z,0.65
2022-11-06T08:50:48.865Z,0.63
2022-11-06T08:53:17.827Z,0.95
2022-11-06T08:55:47.818Z,1.63
2022-11-06T08:58:16.139Z,1.63
2022-11-06T09:00:44.570Z,1.52
2022-11-06T09:03:15.881Z,1.17
2022-11-06T09:05:44.810Z,1.30
2022-11-06T09:08:14.073Z,1.25
2022-11-06T09:10:43.579Z,1.50
2022-11-06T09:13:13.912Z,1.35
2022-11-06T09:15:42.261Z,0.85
2022-11-06T09:18:11.739Z,1.63
2022-11-06T09:20:40.136Z,1.58
2022-11-06T09:23:10.023Z,2.78
2022-11-06T09:25:38.200Z,2.42
2022-11-06T09:28:06.591Z,1.85
2022-11-06T09:30:36.115Z,1.70
2022-11-06T09:33:09.130Z,1.80
2022-11-06T09:35:40.439Z,2.58
2022-11-06T09:38:11.418Z,2.92
2022-11-06T09:40:43.240Z,4.15
2022-11-06T09:43:58.256Z,4.97
2022-11-06T09:46:23.022Z,1.98
2022-11-06T09:48:58.154Z,2.25
2022-11-06T09:51:34.268Z,2.72
2022-11-06T09:54:07.077Z,2.20
2022-11-06T09:56:38.258Z,1.85
2022-11-06T09:59:11.588Z,2.10
2022-11-06T10:01:45.393Z,2.40
2022-11-06T10:04:28.277Z,1.92
2022-11-06T10:06:56.650Z,2.05
2022-11-06T10:09:24.903Z,2.10
2022-11-06T10:12:04.303Z,1.50
2022-11-06T10:14:48.691Z,1.30
2022-11-06T10:17:27.826Z,0.95
2022-11-06T10:20:01.020Z,1.15
2022-11-06T10:22:37.607Z,1.90
2022-11-06T10:25:19.494Z,1.33
2022-11-06T10:27:58.410Z,1.38
2022-11-06T10:30:27.215Z,2.03
2022-11-06T10:33:11.259Z,1.73
2022-11-06T10:35:44.074Z,1.38
2022-11-06T10:38:15.770Z,0.80
2022-11-06T10:40:46.343Z,0.60
2022-11-06T10:43:26.338Z,1.00
2022-11-06T10:46:01.712Z,1.90
2022-11-06T10:48:37.160Z,1.63
2022-11-06T10:51:29.869Z,1.42
2022-11-06T10:54:14.696Z,1.25
2022-11-06T10:56:57.193Z,1.08
2022-11-06T10:59:25.663Z,1.48
2022-11-06T11:01:54.087Z,3.63
2022-11-06T11:04:23.676Z,4.40
2022-11-06T11:06:51.895Z,3.88
2022-11-06T11:09:37.838Z,3.22
2022-11-06T11:12:06.583Z,5.32
2022-11-06T11:14:34.756Z,3.67
2022-11-06T11:17:09.909Z,2.88
2022-11-06T11:19:44.008Z,3.50
2022-11-06T11:22:21.293Z,3.92
2022-11-06T11:25:02.865Z,3.30
2022-11-06T11:27:33.369Z,3.85
2022-11-06T11:30:01.544Z,3.20
2022-11-06T11:32:31.278Z,3.00
2022-11-06T11:35:01.061Z,3.22
2022-11-06T11:37:31.532Z,3.17
2022-11-06T11:40:22.381Z,3.20
2022-11-06T11:42:50.613Z,3.20
2022-11-06T11:45:21.137Z,3.13
2022-11-06T11:47:52.043Z,2.90
2022-11-06T11:50:30.667Z,3.50
2022-11-06T11:53:08.692Z,3.05
2022-11-06T11:55:41.932Z,2.92
2022-11-06T11:58:21.448Z,3.10
2022-11-06T12:00:56.848Z,2.75
2022-11-06T12:03:28.553Z,2.70
2022-11-06T12:06:07.764Z,3.22
2022-11-06T12:08:36.236Z,2.83
2022-11-06T12:11:05.928Z,3.90
2022-11-06T12:13:34.440Z,3.30
2022-11-06T12:16:04.758Z,3.55
2022-11-06T12:18:35.924Z,3.63
2022-11-06T12:23:42.039Z,3.08
2022-11-06T12:26:19.868Z,2.83
2022-11-06T12:28:50.984Z,3.13
2022-11-06T12:31:28.072Z,3.67
2022-11-06T12:34:06.865Z,3.22
2022-11-06T12:36:44.292Z,2.97
2022-11-06T12:39:17.544Z,2.80
2022-11-06T12:41:50.083Z,3.10
2022-11-06T12:44:18.623Z,3.42
2022-11-06T12:46:53.296Z,2.83
2022-11-06T12:50:05.165Z,2.40
2022-11-06T12:52:50.191Z,3.55
2022-11-06T12:55:24.972Z,2.55
2022-11-06T12:58:08.673Z,2.90
2022-11-06T13:00:48.223Z,3.10
2022-11-06T13:03:33.580Z,2.47
2022-11-06T13:06:12.985Z,3.05
2022-11-06T13:08:50.211Z,2.72
2022-11-06T13:11:29.501Z,2.70
2022-11-06T13:14:11.977Z,3.10
2022-11-06T13:16:48.800Z,2.50
2022-11-06T13:19:25.460Z,3.28
2022-11-06T13:22:13.904Z,2.95
2022-11-06T13:24:49.257Z,2.53
2022-11-06T13:27:27.564Z,3.03
2022-11-06T13:30:03.124Z,2.72
2022-11-06T13:32:35.503Z,2.67
2022-11-06T13:35:05.109Z,2.28
2022-11-06T13:37:41.233Z,3.22
2022-11-06T13:40:24.198Z,3.20
2022-11-06T13:42:58.590Z,2.70
2022-11-06T13:45:27.844Z,3.03
2022-11-06T13:48:18.151Z,3.08
2022-11-06T13:50:54.673Z,2.53
2022-11-06T13:53:28.130Z,3.10
2022-11-06T13:56:06.548Z,3.15
2022-11-06T13:58:55.814Z,2.65
2022-11-06T14:01:34.495Z,2.78
2022-11-06T14:04:44.141Z,3.20
2022-11-06T14:07:13.304Z,3.10
2022-11-06T14:09:45.582Z,3.13
2022-11-06T14:12:20.573Z,3.55
2022-11-06T14:14:50.065Z,4.22
2022-11-06T14:17:24.475Z,3.85
2022-11-06T14:20:06.348Z,3.78
2022-11-06T14:22:36.453Z,3.58
2022-11-06T14:25:38.099Z,4.55
2022-11-06T14:28:08.363Z,4.35
2022-11-06T14:31:11.199Z,3.90
2022-11-06T14:34:01.084Z,3.67
2022-11-06T14:36:38.823Z,3.78
2022-11-06T14:39:11.931Z,4.95
2022-11-06T14:41:55.719Z,4.72
2022-11-06T14:44:57.178Z,3.85
2022-11-06T14:47:33.287Z,4.53
2022-11-06T14:50:05.887Z,5.40
2022-11-06T14:52:46.572Z,5.63
2022-11-06T14:55:28.478Z,5.00
2022-11-06T14:57:59.516Z,4.53
2022-11-06T15:00:44.898Z,5.38
2022-11-06T15:03:30.501Z,4.40
2022-11-06T15:06:02.623Z,6.20
2022-11-06T15:08:54.129Z,4.55
2022-11-06T15:11:51.579Z,5.40
2022-11-06T15:14:57.316Z,4.95
2022-11-06T15:17:37.235Z,5.03
2022-11-06T15:20:24.646Z,4.95
2022-11-06T15:23:05.057Z,4.43
2022-11-06T15:25:34.617Z,5.13
2022-11-06T15:28:09.095Z,5.30
2022-11-06T15:30:45.510Z,5.20
2022-11-06T15:33:19.316Z,4.80
2022-11-06T15:35:49.778Z,4.95
2022-11-06T15:38:21.279Z,5.43
2022-11-06T15:40:52.472Z,5.18
2022-11-06T15:43:32.364Z,4.82
2022-11-06T15:46:16.395Z,4.45
2022-11-06T15:48:46.547Z,6.80
2022-11-06T15:51:22.956Z,5.60
2022-11-06T15:53:51.365Z,5.97
2022-11-06T15:56:22.605Z,7.88
2022-11-06T15:59:07.369Z,7.90
2022-11-06T16:01:36.077Z,6.60
2022-11-06T16:04:14.564Z,7.70
2022-11-06T16:06:44.340Z,7.70
2022-11-06T16:09:19.322Z,8.00
2022-11-06T16:11:49.056Z,6.85
2022-11-06T16:14:17.988Z,9.85
2022-11-06T16:16:48.750Z,10.68
2022-11-06T16:19:29.972Z,13.75
2022-11-06T16:22:02.244Z,14.75
2022-11-06T16:24:34.404Z,32.08
2022-11-06T16:27:07.148Z,28.67
2022-11-06T16:29:35.767Z,33.97
2022-11-06T16:32:06.622Z,16.35
2022-11-06T16:34:44.470Z,16.17
2022-11-06T16:37:39.676Z,12.10
2022-11-06T16:40:49.835Z,15.20
2022-11-06T16:43:19.533Z,20.33
2022-11-06T16:45:58.722Z,16.75
2022-11-06T16:48:34.589Z,17.73
2022-11-06T16:51:13.818Z,14.07
2022-11-06T16:54:00.677Z,16.85
2022-11-06T16:56:31.496Z,15.38
2022-11-06T16:59:03.933Z,10.80
2022-11-06T17:01:39.805Z,13.25
2022-11-06T17:04:11.155Z,12.65
2022-11-06T17:06:40.788Z,11.10
2022-11-06T17:09:28.001Z,8.25
2022-11-06T17:11:57.076Z,10.77
2022-11-06T17:14:26.163Z,9.05
2022-11-06T17:16:57.904Z,9.23
2022-11-06T17:21:56.669Z,8.68
2022-11-06T17:24:36.513Z,8.25
2022-11-06T17:27:05.680Z,7.03
2022-11-06T17:29:36.328Z,7.00
2022-11-06T17:32:05.022Z,6.90
2022-11-06T17:34:33.459Z,5.22
2022-11-06T17:37:03.348Z,6.38
2022-11-06T17:39:32.809Z,7.32
2022-11-06T17:42:00.968Z,6.32
2022-11-06T17:44:29.118Z,5.57
2022-11-06T17:46:57.270Z,5.30
2022-11-06T17:49:25.407Z,5.68
2022-11-06T17:52:00.230Z,5.38
2022-11-06T17:54:32.690Z,7.13
2022-11-06T17:57:02.744Z,9.25
2022-11-06T17:59:31.651Z,7.22
2022-11-06T18:02:00.285Z,7.80
2022-11-06T18:04:31.416Z,8.43
2022-11-06T18:07:00.100Z,8.70
2022-11-06T18:09:30.074Z,6.13
2022-11-06T18:11:58.433Z,8.55
2022-11-06T18:14:28.473Z,8.18
2022-11-06T18:16:56.745Z,11.75
2022-11-06T18:19:25.989Z,8.27
2022-11-06T18:21:55.318Z,8.80
2022-11-06T18:24:23.884Z,9.48
2022-11-06T18:26:53.517Z,10.50
2022-11-06T18:29:21.968Z,11.63
2022-11-06T18:31:50.673Z,9.43
2022-11-06T18:34:21.346Z,12.38
2022-11-06T18:36:50.231Z,10.43
2022-11-06T18:39:18.692Z,8.65
2022-11-06T18:41:46.926Z,11.52
2022-11-06T18:44:18.335Z,12.75
2022-11-06T18:46:47.133Z,10.13
2022-11-06T18:49:15.711Z,8.52
2022-11-06T18:51:44.001Z,11.65
2022-11-06T18:54:13.548Z,12.57
2022-11-06T18:56:42.028Z,11.18
2022-11-06T18:59:15.983Z,9.23
2022-11-06T19:01:45.664Z,9.43
2022-11-06T19:04:14.264Z,9.02
2022-11-06T19:06:43.018Z,12.32
2022-11-06T19:09:11.848Z,8.95
2022-11-06T19:11:40.463Z,8.52
2022-11-06T19:14:08.716Z,10.73
2022-11-06T19:16:37.014Z,16.98
2022-11-06T19:19:08.480Z,9.88
2022-11-06T19:21:36.872Z,10.32
2022-11-06T19:24:06.605Z,11.48
2022-11-06T19:26:35.801Z,11.48
2022-11-06T19:29:05.111Z,11.05
2022-11-06T19:31:34.169Z,13.60
2022-11-06T19:34:03.882Z,9.32
2022-11-06T19:36:34.717Z,9.18
2022-11-06T19:39:03.631Z,10.63
2022-11-06T19:41:31.909Z,14.18
2022-11-06T19:44:00.179Z,13.63
2022-11-06T19:46:33.884Z,12.77
2022-11-06T19:49:04.070Z,15.48
2022-11-06T19:51:33.949Z,15.48
2022-11-06T19:54:02.532Z,13.65
2022-11-06T19:56:30.705Z,11.25
2022-11-06T19:58:59.341Z,11.68
2022-11-06T20:01:28.042Z,9.32
2022-11-06T20:03:56.350Z,9.95
2022-11-06T20:06:24.625Z,11.65
2022-11-06T20:08:54.306Z,8.23
2022-11-06T20:11:22.521Z,8.27
2022-11-06T20:13:50.704Z,11.45
2022-11-06T20:16:21.339Z,14.68
2022-11-06T20:18:52.284Z,11.02
2022-11-06T20:21:21.057Z,10.98
2022-11-06T20:23:49.837Z,12.15
2022-11-06T20:26:20.101Z,10.57
2022-11-06T20:28:48.702Z,8.40
2022-11-06T20:31:19.930Z,5.07
2022-11-06T20:33:48.573Z,10.30
2022-11-06T20:36:18.948Z,8.77
2022-11-06T20:38:47.646Z,8.60
2022-11-06T20:41:16.820Z,8.85
2022-11-06T20:43:46.601Z,7.80
2022-11-06T20:46:16.789Z,7.80
2022-11-06T20:48:46.089Z,6.60
2022-11-06T20:51:15.796Z,7.13
2022-11-06T20:53:45.309Z,5.93
2022-11-06T20:56:15.616Z,13.23
2022-11-06T20:58:46.213Z,11.98
2022-11-06T21:01:18.165Z,12.50
2022-11-06T21:03:47.753Z,14.43
2022-11-06T21:06:16.349Z,17.95
2022-11-06T21:08:45.165Z,15.10
2022-11-06T21:11:16.775Z,16.83
2022-11-06T21:13:48.748Z,11.05
2022-11-06T21:16:19.073Z,7.90
2022-11-06T21:18:47.926Z,7.18
2022-11-06T21:21:18.237Z,5.85
2022-11-06T21:23:46.444Z,10.00
2022-11-06T21:26:16.376Z,8.85
2022-11-06T21:28:46.669Z,6.28
2022-11-06T21:31:16.685Z,6.22
2022-11-06T21:33:46.587Z,5.90
2022-11-06T21:36:17.002Z,5.40
2022-11-06T21:38:45.177Z,5.45
2022-11-06T21:41:15.920Z,9.63
2022-11-06T21:43:45.767Z,6.43
2022-11-06T21:46:15.236Z,7.22
2022-11-06T21:48:46.924Z,4.18
2022-11-06T21:51:18.120Z,4.38
2022-11-06T21:54:04.672Z,4.57
2022-11-06T21:56:33.032Z,5.10
2022-11-06T21:59:03.931Z,3.85
2022-11-06T22:01:32.972Z,4.57
2022-11-06T22:04:02.089Z,3.78
2022-11-06T22:06:31.122Z,4.95
2022-11-06T22:09:02.029Z,5.25
2022-11-06T22:11:31.988Z,5.00
2022-11-06T22:14:04.254Z,4.43
2022-11-06T22:16:34.024Z,2.95
2022-11-06T22:19:02.242Z,3.85
2022-11-06T22:21:31.721Z,4.05
2022-11-06T22:24:00.782Z,2.53
2022-11-06T22:26:31.188Z,3.00
2022-11-06T22:29:00.826Z,3.60
2022-11-06T22:31:31.304Z,6.57
2022-11-06T22:33:59.852Z,8.07
2022-11-06T22:36:28.355Z,8.88
2022-11-06T22:38:57.746Z,9.95
2022-11-06T22:41:27.001Z,8.32
2022-11-06T22:43:59.863Z,8.15
2022-11-06T22:46:30.258Z,9.60
2022-11-06T22:48:59.118Z,8.57
2022-11-06T22:51:29.132Z,9.90
2022-11-06T22:53:57.518Z,8.98
2022-11-06T22:56:27.001Z,11.50
2022-11-06T22:58:55.701Z,9.88
2022-11-06T23:01:25.991Z,9.75
2022-11-06T23:03:57.816Z,7.60
2022-11-06T23:08:55.343Z,7.47
2022-11-06T23:11:25.923Z,12.05
2022-11-06T23:13:54.673Z,10.77
2022-11-06T23:16:38.665Z,12.60
2022-11-06T23:19:08.728Z,10.00
2022-11-06T23:21:37.211Z,12.45
2022-11-06T23:24:06.716Z,13.25
2022-11-06T23:26:35.511Z,13.23
2022-11-06T23:29:03.985Z,13.32
2022-11-06T23:31:32.332Z,11.90
2022-11-06T23:34:00.535Z,12.27
2022-11-06T23:36:30.273Z,14.27
2022-11-06T23:38:58.443Z,13.15
2022-11-06T23:41:45.951Z,11.73
2022-11-06T23:44:28.678Z,11.35
2022-11-06T23:46:56.928Z,12.73
2022-11-06T23:49:25.449Z,10.02
2022-11-06T23:51:55.044Z,8.98
2022-11-06T23:54:23.329Z,7.15
2022-11-06T23:56:51.523Z,5.45
2022-11-06T23:59:19.753Z,3.80
